Terminal Aerodrome Forecast
Issued by NWS

Home | Current Version | Previous Version | Text Only | Print | Product List | Glossary On
Versions: 1 2 3 4 5 6 7 8 9 10 11 12 13 14 15 16 17 18 19 20
000
FTUS44 KCRP 171700
TAFLRD
TAF
KLRD 171730Z 1718/1818 16009KT P6SM SCT025
     FM171900 17011KT P6SM VCTS SCT035CB BKN060
      TEMPO 1722/1802 TSRA BKN035CB
     FM180200 15012KT P6SM SCT050
     FM180900 15008KT P6SM FEW010
      TEMPO 1811/1815 P6SM BKN008
     FM181600 15012KT P6SM SKC=

USA.gov is the U.S. government's official web portal to all federal, state and local government web resources and services.